createdAt,value
2023-01-09T00:01:46.269Z,9.07
2023-01-09T00:05:28.059Z,5.53
2023-01-09T00:09:10.944Z,12.43
2023-01-09T00:12:52.684Z,18.52
2023-01-09T00:16:34.442Z,10.60
2023-01-09T00:20:16.338Z,12.20
2023-01-09T00:23:58.155Z,11.48
2023-01-09T00:27:40.057Z,10.63
2023-01-09T00:31:22.074Z,13.57
2023-01-09T00:35:04.035Z,9.52
2023-01-09T00:38:45.772Z,8.45
2023-01-09T00:42:31.987Z,15.45
2023-01-09T00:46:14.955Z,11.45
2023-01-09T00:50:00.779Z,10.73
2023-01-09T00:53:43.461Z,14.20
2023-01-09T00:57:25.711Z,12.57
2023-01-09T01:01:07.632Z,10.10
2023-01-09T01:05:08.160Z,18.40
2023-01-09T01:08:50.013Z,15.38
2023-01-09T01:12:31.754Z,10.00
2023-01-09T01:16:14.283Z,14.13
2023-01-09T01:19:56.343Z,18.30
2023-01-09T01:23:38.826Z,14.00
2023-01-09T01:27:20.589Z,17.00
2023-01-09T01:31:02.871Z,15.20
2023-01-09T01:34:46.887Z,14.65
2023-01-09T01:38:30.305Z,15.15
2023-01-09T01:42:13.536Z,16.88
2023-01-09T01:45:55.648Z,14.82
2023-01-09T01:49:37.819Z,20.60
2023-01-09T01:53:39.752Z,16.88
2023-01-09T01:57:21.574Z,16.63
2023-01-09T02:01:03.692Z,13.48
2023-01-09T02:04:46.514Z,19.33
2023-01-09T02:08:28.275Z,22.92
2023-01-09T02:12:17.694Z,16.27
2023-01-09T02:16:16.718Z,19.27
2023-01-09T02:20:19.525Z,21.60
2023-01-09T02:24:10.301Z,19.10
2023-01-09T02:28:42.627Z,16.65
2023-01-09T02:32:39.705Z,21.52
2023-01-09T02:36:30.978Z,14.15
2023-01-09T02:40:29.232Z,14.35
2023-01-09T02:44:31.366Z,11.27
2023-01-09T02:48:13.553Z,21.38
2023-01-09T02:52:16.541Z,23.85
2023-01-09T02:56:23.916Z,12.38
2023-01-09T03:00:31.790Z,16.05
2023-01-09T03:04:50.911Z,13.82
2023-01-09T03:08:39.119Z,12.18
2023-01-09T03:12:24.727Z,17.13
2023-01-09T03:16:08.812Z,11.88
2023-01-09T03:19:53.471Z,12.07
2023-01-09T03:23:53.156Z,18.02
2023-01-09T03:27:35.017Z,15.25
2023-01-09T03:31:17.491Z,15.55
2023-01-09T03:35:01.515Z,15.60
2023-01-09T03:38:43.490Z,17.75
2023-01-09T03:42:25.344Z,18.58
2023-01-09T03:46:07.340Z,14.70
2023-01-09T03:49:49.205Z,15.82
2023-01-09T03:53:31.050Z,16.30
2023-01-09T03:57:12.951Z,15.50
2023-01-09T04:01:00.017Z,20.40
2023-01-09T04:04:42.021Z,20.57
2023-01-09T04:08:23.872Z,20.38
2023-01-09T04:12:06.070Z,15.98
2023-01-09T04:15:47.949Z,14.63
2023-01-09T04:19:29.780Z,15.18
2023-01-09T04:23:11.617Z,15.90
2023-01-09T04:26:53.406Z,16.08
2023-01-09T04:30:35.545Z,16.00
2023-01-09T04:34:17.494Z,13.70
2023-01-09T04:38:00.900Z,13.93
2023-01-09T04:41:51.815Z,15.80
2023-01-09T04:45:33.730Z,11.50
2023-01-09T04:49:16.065Z,13.18
2023-01-09T04:52:57.999Z,17.52
2023-01-09T04:56:40.137Z,20.92
2023-01-09T05:00:22.120Z,17.17
2023-01-09T05:04:04.385Z,20.73
2023-01-09T05:07:46.210Z,20.40
2023-01-09T05:11:28.496Z,13.63
2023-01-09T05:15:10.714Z,15.43
2023-01-09T05:18:56.646Z,19.80
2023-01-09T05:22:38.550Z,18.08
2023-01-09T05:26:24.278Z,15.70
2023-01-09T05:30:06.714Z,16.92
2023-01-09T05:33:48.568Z,16.33
2023-01-09T05:37:30.451Z,11.30
2023-01-09T05:41:12.476Z,11.63
2023-01-09T05:44:54.322Z,7.53
2023-01-09T05:48:36.348Z,10.75
2023-01-09T05:52:18.151Z,12.57
2023-01-09T05:55:59.935Z,15.20
2023-01-09T05:59:41.859Z,20.60
2023-01-09T06:03:23.716Z,11.68
2023-01-09T06:07:05.604Z,17.92
2023-01-09T06:10:48.101Z,14.85
2023-01-09T06:14:30.032Z,16.98
2023-01-09T06:18:11.815Z,12.13
2023-01-09T06:21:53.813Z,14.55
2023-01-09T06:25:35.721Z,12.68
2023-01-09T06:29:17.671Z,11.85
2023-01-09T06:32:59.529Z,10.48
2023-01-09T06:36:41.355Z,17.63
2023-01-09T06:40:23.162Z,12.23
2023-01-09T06:44:04.977Z,13.02
2023-01-09T06:47:46.803Z,9.07
2023-01-09T06:51:28.646Z,9.20
2023-01-09T06:55:10.486Z,10.73
2023-01-09T06:58:52.567Z,8.20
2023-01-09T07:02:34.435Z,9.85
2023-01-09T07:06:16.310Z,4.07
2023-01-09T07:09:58.119Z,8.07
2023-01-09T07:13:39.964Z,5.85
2023-01-09T07:17:21.763Z,7.35
2023-01-09T07:21:05.585Z,9.57
2023-01-09T07:24:47.645Z,12.32
2023-01-09T07:28:29.607Z,6.38
2023-01-09T07:32:11.420Z,7.20
2023-01-09T07:35:53.337Z,20.08
2023-01-09T07:39:35.265Z,11.60
2023-01-09T07:43:17.161Z,21.73
2023-01-09T07:46:58.998Z,9.77
2023-01-09T07:50:40.834Z,8.65
2023-01-09T07:54:22.815Z,11.98
2023-01-09T07:58:04.677Z,8.93
2023-01-09T08:01:46.661Z,10.75
2023-01-09T08:05:28.624Z,9.75
2023-01-09T08:09:10.712Z,10.63
2023-01-09T08:12:53.071Z,7.53
2023-01-09T08:16:35.154Z,11.52
2023-01-09T08:20:17.699Z,8.15
2023-01-09T08:23:59.638Z,14.70
2023-01-09T08:27:41.964Z,5.22
2023-01-09T08:31:23.826Z,13.18
2023-01-09T08:35:06.604Z,10.93
2023-01-09T08:38:48.486Z,9.55
2023-01-09T08:42:48.761Z,5.07
2023-01-09T08:46:49.111Z,10.48
2023-01-09T08:50:30.948Z,10.93
2023-01-09T08:54:13.167Z,9.10
2023-01-09T08:57:55.317Z,7.72
2023-01-09T09:01:37.372Z,7.70
2023-01-09T09:05:19.800Z,9.98
2023-01-09T09:09:03.251Z,6.38
2023-01-09T09:12:47.681Z,6.20
2023-01-09T09:16:29.582Z,5.45
2023-01-09T09:20:12.230Z,12.30
2023-01-09T09:23:57.915Z,5.60
2023-01-09T09:27:40.076Z,7.85
2023-01-09T09:31:21.963Z,8.32
2023-01-09T09:35:04.412Z,5.22
2023-01-09T09:38:46.365Z,8.75
2023-01-09T09:43:27.583Z,9.77
2023-01-09T09:47:12.184Z,6.28
2023-01-09T09:51:21.731Z,11.15
2023-01-09T09:55:16.682Z,3.47
2023-01-09T09:59:05.843Z,4.05
2023-01-09T10:02:58.233Z,6.72
2023-01-09T10:06:49.733Z,8.93
2023-01-09T10:10:41.098Z,6.90
2023-01-09T10:14:24.696Z,11.55
2023-01-09T10:18:44.965Z,13.95
2023-01-09T10:22:31.704Z,12.25
2023-01-09T10:26:48.839Z,9.35
2023-01-09T10:30:51.281Z,15.35
2023-01-09T10:34:46.809Z,22.77
2023-01-09T10:38:33.909Z,16.02
2023-01-09T10:42:18.902Z,11.85
2023-01-09T10:46:07.730Z,14.82
2023-01-09T10:49:50.916Z,11.60
2023-01-09T10:53:39.469Z,22.60
2023-01-09T10:57:27.119Z,16.35
2023-01-09T11:01:09.843Z,14.68
2023-01-09T11:04:52.289Z,13.25
2023-01-09T11:08:42.706Z,18.13
2023-01-09T11:12:27.065Z,13.38
2023-01-09T11:16:19.930Z,19.23
2023-01-09T11:20:05.198Z,19.58
2023-01-09T11:23:47.055Z,8.77
2023-01-09T11:27:29.023Z,16.58
2023-01-09T11:31:10.953Z,19.33
2023-01-09T11:34:52.803Z,13.48
2023-01-09T11:38:55.570Z,26.85
2023-01-09T11:42:53.542Z,15.00
2023-01-09T11:46:42.500Z,15.32
2023-01-09T11:50:31.103Z,11.13
2023-01-09T11:54:25.304Z,15.43
2023-01-09T11:58:17.205Z,14.10
2023-01-09T12:02:01.828Z,13.52
2023-01-09T12:05:55.038Z,12.57
2023-01-09T12:09:52.245Z,14.20
2023-01-09T12:13:58.888Z,16.23
2023-01-09T12:17:49.674Z,21.02
2023-01-09T12:21:42.913Z,13.60
2023-01-09T12:25:48.688Z,11.07
2023-01-09T12:29:39.567Z,14.07
2023-01-09T12:33:50.380Z,17.00
2023-01-09T12:37:52.952Z,15.93
2023-01-09T12:41:52.625Z,12.05
2023-01-09T12:45:39.617Z,9.32
2023-01-09T12:49:39.731Z,7.50
2023-01-09T12:53:30.897Z,13.23
2023-01-09T12:57:33.801Z,11.82
2023-01-09T13:01:21.733Z,11.68
2023-01-09T13:05:15.812Z,12.10
2023-01-09T13:09:03.389Z,16.35
2023-01-09T13:12:48.152Z,11.32
2023-01-09T13:16:36.575Z,14.57
2023-01-09T13:20:29.231Z,22.10
2023-01-09T13:24:30.935Z,12.48
2023-01-09T13:28:26.711Z,9.57
2023-01-09T13:32:38.943Z,15.27
2023-01-09T13:36:25.614Z,12.88
2023-01-09T13:40:27.048Z,9.20
2023-01-09T13:44:18.047Z,10.13
2023-01-09T13:48:14.082Z,13.55
2023-01-09T13:51:58.005Z,16.00
2023-01-09T13:55:59.920Z,12.55
2023-01-09T13:59:41.804Z,10.13
2023-01-09T14:03:38.200Z,14.18
2023-01-09T14:07:23.165Z,17.65
2023-01-09T14:11:06.559Z,11.15
2023-01-09T14:14:50.967Z,18.27
2023-01-09T14:18:40.158Z,20.48
2023-01-09T14:22:45.618Z,17.02
2023-01-09T14:26:55.251Z,19.75
2023-01-09T14:30:52.447Z,15.80
2023-01-09T14:34:39.002Z,15.50
2023-01-09T14:38:32.411Z,9.93
2023-01-09T14:42:22.739Z,17.20
2023-01-09T14:46:11.083Z,15.82
2023-01-09T14:50:15.920Z,14.55
2023-01-09T14:53:59.963Z,18.25
2023-01-09T14:57:41.790Z,24.80
2023-01-09T15:01:25.505Z,15.70
2023-01-09T15:05:20.632Z,20.10
2023-01-09T15:09:07.968Z,17.08
2023-01-09T15:12:52.651Z,21.25
2023-01-09T15:16:34.679Z,9.32
2023-01-09T15:20:22.232Z,10.02
2023-01-09T15:24:19.303Z,16.45
2023-01-09T15:28:02.580Z,25.20
2023-01-09T15:31:54.623Z,19.05
2023-01-09T15:35:41.471Z,11.90
2023-01-09T15:39:27.971Z,23.20
2023-01-09T15:43:14.690Z,27.55
2023-01-09T15:46:59.518Z,10.60
2023-01-09T15:50:42.082Z,24.38
2023-01-09T15:54:32.872Z,12.57
2023-01-09T15:58:32.032Z,5.80
2023-01-09T16:02:33.460Z,20.55
2023-01-09T16:06:28.998Z,14.35
2023-01-09T16:10:26.587Z,21.15
2023-01-09T16:14:18.122Z,21.23
2023-01-09T16:18:18.065Z,20.08
2023-01-09T16:22:02.710Z,21.13
2023-01-09T16:25:44.643Z,26.65
2023-01-09T16:29:27.962Z,23.52
2023-01-09T16:33:23.176Z,23.15
2023-01-09T16:37:05.832Z,24.70
2023-01-09T16:41:18.132Z,28.27
2023-01-09T16:45:00.006Z,25.40
2023-01-09T16:48:42.148Z,26.20
2023-01-09T16:52:23.974Z,28.65
2023-01-09T16:56:06.256Z,26.17
2023-01-09T16:59:48.471Z,21.52
2023-01-09T17:03:30.322Z,24.13
2023-01-09T17:07:14.422Z,32.28
2023-01-09T17:10:57.143Z,30.45
2023-01-09T17:14:38.953Z,22.92
2023-01-09T17:18:25.802Z,32.92
2023-01-09T17:22:08.491Z,27.88
2023-01-09T17:26:12.877Z,22.95
2023-01-09T17:29:54.961Z,23.10
2023-01-09T17:33:38.109Z,22.42
2023-01-09T17:37:20.483Z,26.60
2023-01-09T17:41:02.333Z,27.27
2023-01-09T17:44:44.203Z,31.77
2023-01-09T17:48:26.061Z,21.33
2023-01-09T17:52:08.347Z,22.50
2023-01-09T17:55:50.210Z,22.33
2023-01-09T17:59:32.113Z,29.02
2023-01-09T18:03:13.952Z,22.92
2023-01-09T18:06:55.789Z,31.20
2023-01-09T18:10:37.703Z,22.83
2023-01-09T18:14:19.611Z,30.35
2023-01-09T18:18:01.434Z,32.70
2023-01-09T18:21:43.261Z,23.00
2023-01-09T18:25:25.046Z,29.80
2023-01-09T18:29:06.947Z,24.55
2023-01-09T18:32:48.771Z,33.33
2023-01-09T18:36:30.826Z,27.27
2023-01-09T18:40:12.896Z,28.48
2023-01-09T18:43:56.510Z,31.20
2023-01-09T18:47:39.489Z,32.00
2023-01-09T18:51:22.484Z,29.33
2023-01-09T18:55:04.845Z,31.20
2023-01-09T18:58:53.701Z,28.10
2023-01-09T19:02:35.527Z,30.95
2023-01-09T19:06:17.354Z,26.08
2023-01-09T19:09:59.227Z,27.50
2023-01-09T19:13:41.234Z,28.52
2023-01-09T19:17:23.069Z,30.23
2023-01-09T19:21:16.826Z,29.30
2023-01-09T19:24:58.647Z,26.17
2023-01-09T19:28:44.870Z,31.10
2023-01-09T19:32:26.685Z,32.72
2023-01-09T19:36:09.347Z,34.80
2023-01-09T19:39:51.220Z,24.75
2023-01-09T19:43:33.044Z,27.40
2023-01-09T19:47:14.875Z,40.88
2023-01-09T19:51:04.094Z,29.67
2023-01-09T19:54:47.805Z,36.55
2023-01-09T19:58:29.632Z,24.17
2023-01-09T20:02:13.242Z,36.63
2023-01-09T20:05:55.033Z,40.83
2023-01-09T20:09:37.132Z,27.52
2023-01-09T20:13:18.989Z,28.23
2023-01-09T20:17:04.234Z,28.02
2023-01-09T20:20:50.271Z,26.02
2023-01-09T20:24:32.181Z,28.83
2023-01-09T20:28:14.347Z,27.40
2023-01-09T20:31:56.543Z,38.13
2023-01-09T20:35:38.543Z,42.72
2023-01-09T20:39:20.514Z,37.85
2023-01-09T20:43:02.933Z,26.80
2023-01-09T20:46:49.469Z,29.20
2023-01-09T20:50:31.446Z,24.27
2023-01-09T20:54:14.668Z,27.80
2023-01-09T20:57:56.518Z,24.00
2023-01-09T21:01:40.403Z,26.40
2023-01-09T21:05:22.327Z,27.38
2023-01-09T21:09:05.431Z,18.92
2023-01-09T21:12:47.313Z,22.85
2023-01-09T21:16:29.537Z,22.65
2023-01-09T21:20:15.261Z,25.48
2023-01-09T21:23:59.008Z,20.45
2023-01-09T21:27:43.301Z,24.83
2023-01-09T21:31:33.149Z,18.48
2023-01-09T21:35:15.876Z,21.13
2023-01-09T21:38:59.028Z,24.00
2023-01-09T21:43:00.162Z,22.90
2023-01-09T21:46:57.710Z,17.65
2023-01-09T21:50:41.142Z,36.77
2023-01-09T21:54:24.045Z,30.20
2023-01-09T21:58:05.934Z,28.77
2023-01-09T22:01:49.678Z,40.50
2023-01-09T22:05:31.628Z,42.63
2023-01-09T22:09:14.257Z,26.88
2023-01-09T22:13:16.108Z,26.00
2023-01-09T22:16:58.013Z,23.20
2023-01-09T22:20:39.874Z,22.60
2023-01-09T22:24:21.826Z,24.92
2023-01-09T22:28:04.577Z,23.02
2023-01-09T22:31:46.459Z,26.23
2023-01-09T22:35:28.271Z,25.17
2023-01-09T22:39:13.413Z,27.52
2023-01-09T22:42:55.411Z,27.98
2023-01-09T22:46:37.655Z,36.40
2023-01-09T22:50:19.432Z,33.85
2023-01-09T22:54:01.438Z,26.40
2023-01-09T22:57:43.288Z,29.83
2023-01-09T23:01:25.162Z,29.77
2023-01-09T23:05:07.239Z,25.25
2023-01-09T23:08:51.292Z,18.42
2023-01-09T23:12:33.929Z,26.55
2023-01-09T23:16:15.930Z,14.77
2023-01-09T23:19:57.800Z,14.82
2023-01-09T23:23:39.596Z,20.35
2023-01-09T23:27:21.424Z,23.45
2023-01-09T23:31:03.304Z,16.05
2023-01-09T23:34:47.147Z,17.13
2023-01-09T23:38:29.060Z,21.48
2023-01-09T23:42:30.387Z,17.52
2023-01-09T23:46:12.657Z,16.77
2023-01-09T23:49:54.531Z,18.58
2023-01-09T23:53:36.362Z,22.80
2023-01-09T23:57:18.403Z,28.33
